sensor_id;sensor_type;location;lat;lon;timestamp;temperature;humidity
11597;DHT22;5854;48.072;16.286;2022-09-04T00:01:48;19.90;59.50
11597;DHT22;5854;48.072;16.286;2022-09-04T00:04:26;19.90;61.20
11597;DHT22;5854;48.072;16.286;2022-09-04T00:07:04;19.90;58.10
11597;DHT22;5854;48.072;16.286;2022-09-04T00:09:57;19.90;58.80
11597;DHT22;5854;48.072;16.286;2022-09-04T00:12:41;19.90;58.80
11597;DHT22;5854;48.072;16.286;2022-09-04T00:15:17;19.90;59.10
11597;DHT22;5854;48.072;16.286;2022-09-04T00:17:51;19.90;58.80
11597;DHT22;5854;48.072;16.286;2022-09-04T00:20:29;19.90;58.40
11597;DHT22;5854;48.072;16.286;2022-09-04T00:23:04;19.90;59.90
11597;DHT22;5854;48.072;16.286;2022-09-04T00:25:42;19.80;61.20
11597;DHT22;5854;48.072;16.286;2022-09-04T00:28:23;19.90;58.30
11597;DHT22;5854;48.072;16.286;2022-09-04T00:31:01;20.00;59.20
11597;DHT22;5854;48.072;16.286;2022-09-04T00:33:42;20.10;58.30
11597;DHT22;5854;48.072;16.286;2022-09-04T00:36:14;20.10;57.20
11597;DHT22;5854;48.072;16.286;2022-09-04T00:38:45;20.20;57.60
11597;DHT22;5854;48.072;16.286;2022-09-04T00:41:21;20.20;57.50
11597;DHT22;5854;48.072;16.286;2022-09-04T00:44:23;20.20;57.20
11597;DHT22;5854;48.072;16.286;2022-09-04T00:47:35;20.10;57.20
11597;DHT22;5854;48.072;16.286;2022-09-04T00:50:34;20.20;57.60
11597;DHT22;5854;48.072;16.286;2022-09-04T00:53:28;20.10;56.30
11597;DHT22;5854;48.072;16.286;2022-09-04T00:56:22;20.20;55.80
11597;DHT22;5854;48.072;16.286;2022-09-04T00:59:03;20.20;56.30
11597;DHT22;5854;48.072;16.286;2022-09-04T01:01:37;20.20;56.30
11597;DHT22;5854;48.072;16.286;2022-09-04T01:04:32;20.20;59.30
11597;DHT22;5854;48.072;16.286;2022-09-04T01:07:13;20.20;56.60
11597;DHT22;5854;48.072;16.286;2022-09-04T01:09:59;20.10;57.50
11597;DHT22;5854;48.072;16.286;2022-09-04T01:12:37;20.10;58.60
11597;DHT22;5854;48.072;16.286;2022-09-04T01:15:12;20.20;57.40
11597;DHT22;5854;48.072;16.286;2022-09-04T01:17:54;20.10;59.50
11597;DHT22;5854;48.072;16.286;2022-09-04T01:20:42;20.10;58.90
11597;DHT22;5854;48.072;16.286;2022-09-04T01:23:43;20.10;57.70
11597;DHT22;5854;48.072;16.286;2022-09-04T01:26:46;20.10;59.50
11597;DHT22;5854;48.072;16.286;2022-09-04T01:29:27;20.10;59.00
11597;DHT22;5854;48.072;16.286;2022-09-04T01:32:11;20.10;57.50
11597;DHT22;5854;48.072;16.286;2022-09-04T01:34:49;20.10;57.40
11597;DHT22;5854;48.072;16.286;2022-09-04T01:37:32;20.00;59.40
11597;DHT22;5854;48.072;16.286;2022-09-04T01:40:20;20.10;56.70
11597;DHT22;5854;48.072;16.286;2022-09-04T01:42:57;20.10;57.60
11597;DHT22;5854;48.072;16.286;2022-09-04T01:45:38;20.00;58.30
11597;DHT22;5854;48.072;16.286;2022-09-04T01:48:13;20.00;59.10
11597;DHT22;5854;48.072;16.286;2022-09-04T01:50:44;19.90;59.20
11597;DHT22;5854;48.072;16.286;2022-09-04T01:53:19;19.90;58.10
11597;DHT22;5854;48.072;16.286;2022-09-04T01:55:57;20.00;57.60
11597;DHT22;5854;48.072;16.286;2022-09-04T01:58:35;19.90;59.70
11597;DHT22;5854;48.072;16.286;2022-09-04T02:01:09;20.00;56.70
11597;DHT22;5854;48.072;16.286;2022-09-04T02:03:44;20.10;56.50
11597;DHT22;5854;48.072;16.286;2022-09-04T02:06:23;20.00;57.10
11597;DHT22;5854;48.072;16.286;2022-09-04T02:09:04;20.00;56.30
11597;DHT22;5854;48.072;16.286;2022-09-04T02:11:37;19.90;59.40
11597;DHT22;5854;48.072;16.286;2022-09-04T02:14:19;19.80;58.90
11597;DHT22;5854;48.072;16.286;2022-09-04T02:17:03;19.70;61.70
11597;DHT22;5854;48.072;16.286;2022-09-04T02:19:40;19.70;59.90
11597;DHT22;5854;48.072;16.286;2022-09-04T02:22:25;19.70;61.20
11597;DHT22;5854;48.072;16.286;2022-09-04T02:25:02;19.70;60.90
11597;DHT22;5854;48.072;16.286;2022-09-04T02:27:39;19.60;62.30
11597;DHT22;5854;48.072;16.286;2022-09-04T02:30:15;19.60;61.60
11597;DHT22;5854;48.072;16.286;2022-09-04T02:32:48;19.70;59.70
11597;DHT22;5854;48.072;16.286;2022-09-04T02:35:27;19.60;63.50
11597;DHT22;5854;48.072;16.286;2022-09-04T02:38:08;19.60;63.20
11597;DHT22;5854;48.072;16.286;2022-09-04T02:40:49;19.60;60.00
11597;DHT22;5854;48.072;16.286;2022-09-04T02:43:32;19.60;64.40
11597;DHT22;5854;48.072;16.286;2022-09-04T02:46:15;19.50;63.70
11597;DHT22;5854;48.072;16.286;2022-09-04T02:48:56;19.60;60.00
11597;DHT22;5854;48.072;16.286;2022-09-04T02:51:51;19.60;59.60
11597;DHT22;5854;48.072;16.286;2022-09-04T02:54:38;19.70;60.00
11597;DHT22;5854;48.072;16.286;2022-09-04T02:57:16;19.70;60.90
11597;DHT22;5854;48.072;16.286;2022-09-04T02:59:59;19.70;58.40
11597;DHT22;5854;48.072;16.286;2022-09-04T03:02:36;19.70;60.00
11597;DHT22;5854;48.072;16.286;2022-09-04T03:05:10;19.70;58.30
11597;DHT22;5854;48.072;16.286;2022-09-04T03:07:47;19.70;57.80
11597;DHT22;5854;48.072;16.286;2022-09-04T03:10:24;19.60;63.70
11597;DHT22;5854;48.072;16.286;2022-09-04T03:13:00;19.50;62.30
11597;DHT22;5854;48.072;16.286;2022-09-04T03:15:38;19.50;60.20
11597;DHT22;5854;48.072;16.286;2022-09-04T03:18:14;19.50;59.40
11597;DHT22;5854;48.072;16.286;2022-09-04T03:20:50;19.50;58.90
11597;DHT22;5854;48.072;16.286;2022-09-04T03:23:22;19.60;61.50
11597;DHT22;5854;48.072;16.286;2022-09-04T03:26:20;19.60;59.40
11597;DHT22;5854;48.072;16.286;2022-09-04T03:28:58;19.50;60.90
11597;DHT22;5854;48.072;16.286;2022-09-04T03:31:35;19.50;62.30
11597;DHT22;5854;48.072;16.286;2022-09-04T03:34:19;19.50;64.60
11597;DHT22;5854;48.072;16.286;2022-09-04T03:37:05;19.40;65.00
11597;DHT22;5854;48.072;16.286;2022-09-04T03:39:45;19.30;65.40
11597;DHT22;5854;48.072;16.286;2022-09-04T03:42:29;19.20;66.00
11597;DHT22;5854;48.072;16.286;2022-09-04T03:45:14;19.20;66.00
11597;DHT22;5854;48.072;16.286;2022-09-04T03:47:57;19.10;65.60
11597;DHT22;5854;48.072;16.286;2022-09-04T03:50:37;19.10;65.80
11597;DHT22;5854;48.072;16.286;2022-09-04T03:53:17;19.20;61.80
11597;DHT22;5854;48.072;16.286;2022-09-04T03:59:04;19.20;66.90
11597;DHT22;5854;48.072;16.286;2022-09-04T04:01:40;19.20;63.00
11597;DHT22;5854;48.072;16.286;2022-09-04T04:04:45;19.20;62.00
11597;DHT22;5854;48.072;16.286;2022-09-04T04:07:28;19.30;65.40
11597;DHT22;5854;48.072;16.286;2022-09-04T04:10:12;19.40;61.10
11597;DHT22;5854;48.072;16.286;2022-09-04T04:13:15;19.40;64.70
11597;DHT22;5854;48.072;16.286;2022-09-04T04:16:11;19.40;64.20
11597;DHT22;5854;48.072;16.286;2022-09-04T04:18:57;19.40;65.20
11597;DHT22;5854;48.072;16.286;2022-09-04T04:21:54;19.30;62.50
11597;DHT22;5854;48.072;16.286;2022-09-04T04:24:42;19.40;63.10
11597;DHT22;5854;48.072;16.286;2022-09-04T04:27:34;19.30;63.60
11597;DHT22;5854;48.072;16.286;2022-09-04T04:30:13;19.20;60.90
11597;DHT22;5854;48.072;16.286;2022-09-04T04:33:07;19.10;61.60
11597;DHT22;5854;48.072;16.286;2022-09-04T04:35:45;19.10;61.30
11597;DHT22;5854;48.072;16.286;2022-09-04T04:38:24;19.20;60.40
11597;DHT22;5854;48.072;16.286;2022-09-04T04:41:11;19.20;63.90
11597;DHT22;5854;48.072;16.286;2022-09-04T04:43:54;19.20;63.50
11597;DHT22;5854;48.072;16.286;2022-09-04T04:46:38;19.20;65.10
11597;DHT22;5854;48.072;16.286;2022-09-04T04:49:31;19.20;64.70
11597;DHT22;5854;48.072;16.286;2022-09-04T04:52:22;19.20;62.30
11597;DHT22;5854;48.072;16.286;2022-09-04T04:55:02;19.20;61.40
11597;DHT22;5854;48.072;16.286;2022-09-04T04:57:47;19.30;62.80
11597;DHT22;5854;48.072;16.286;2022-09-04T05:00:22;19.30;60.80
11597;DHT22;5854;48.072;16.286;2022-09-04T05:03:00;19.30;60.10
11597;DHT22;5854;48.072;16.286;2022-09-04T05:05:51;19.20;63.00
11597;DHT22;5854;48.072;16.286;2022-09-04T05:08:32;19.30;59.60
11597;DHT22;5854;48.072;16.286;2022-09-04T05:11:09;19.30;68.30
11597;DHT22;5854;48.072;16.286;2022-09-04T05:14:02;19.20;62.40
11597;DHT22;5854;48.072;16.286;2022-09-04T05:16:37;19.30;61.00
11597;DHT22;5854;48.072;16.286;2022-09-04T05:19:20;19.40;60.90
11597;DHT22;5854;48.072;16.286;2022-09-04T05:21:58;19.30;63.10
11597;DHT22;5854;48.072;16.286;2022-09-04T05:24:34;19.30;64.30
11597;DHT22;5854;48.072;16.286;2022-09-04T05:27:13;19.30;61.90
11597;DHT22;5854;48.072;16.286;2022-09-04T05:29:57;19.30;59.70
11597;DHT22;5854;48.072;16.286;2022-09-04T05:32:32;19.40;58.70
11597;DHT22;5854;48.072;16.286;2022-09-04T05:35:08;19.40;59.00
11597;DHT22;5854;48.072;16.286;2022-09-04T05:37:44;19.40;63.00
11597;DHT22;5854;48.072;16.286;2022-09-04T05:40:22;19.40;64.30
11597;DHT22;5854;48.072;16.286;2022-09-04T05:43:03;19.30;67.80
11597;DHT22;5854;48.072;16.286;2022-09-04T05:45:47;19.30;59.60
11597;DHT22;5854;48.072;16.286;2022-09-04T05:48:21;19.40;59.20
11597;DHT22;5854;48.072;16.286;2022-09-04T05:51:06;19.50;58.70
11597;DHT22;5854;48.072;16.286;2022-09-04T05:54:14;19.40;65.90
11597;DHT22;5854;48.072;16.286;2022-09-04T05:57:25;19.40;63.60
11597;DHT22;5854;48.072;16.286;2022-09-04T06:00:13;19.40;62.50
11597;DHT22;5854;48.072;16.286;2022-09-04T06:03:07;19.50;62.80
11597;DHT22;5854;48.072;16.286;2022-09-04T06:05:55;19.50;64.10
11597;DHT22;5854;48.072;16.286;2022-09-04T06:12:04;19.50;65.70
11597;DHT22;5854;48.072;16.286;2022-09-04T06:15:01;19.60;59.20
11597;DHT22;5854;48.072;16.286;2022-09-04T06:17:45;19.70;59.00
11597;DHT22;5854;48.072;16.286;2022-09-04T06:20:37;19.70;60.40
11597;DHT22;5854;48.072;16.286;2022-09-04T06:23:22;19.70;62.30
11597;DHT22;5854;48.072;16.286;2022-09-04T06:26:30;19.70;61.20
11597;DHT22;5854;48.072;16.286;2022-09-04T06:29:21;19.80;64.50
11597;DHT22;5854;48.072;16.286;2022-09-04T06:32:23;19.80;60.80
11597;DHT22;5854;48.072;16.286;2022-09-04T06:35:19;19.80;63.70
11597;DHT22;5854;48.072;16.286;2022-09-04T06:38:11;19.90;64.40
11597;DHT22;5854;48.072;16.286;2022-09-04T06:40:57;19.80;61.90
11597;DHT22;5854;48.072;16.286;2022-09-04T06:43:37;19.80;64.10
11597;DHT22;5854;48.072;16.286;2022-09-04T06:46:17;19.80;62.10
11597;DHT22;5854;48.072;16.286;2022-09-04T06:48:59;19.80;59.50
11597;DHT22;5854;48.072;16.286;2022-09-04T06:51:50;19.80;64.50
11597;DHT22;5854;48.072;16.286;2022-09-04T06:54:38;19.80;65.60
11597;DHT22;5854;48.072;16.286;2022-09-04T06:57:37;19.80;64.50
11597;DHT22;5854;48.072;16.286;2022-09-04T07:00:14;20.00;64.20
11597;DHT22;5854;48.072;16.286;2022-09-04T07:03:01;19.90;65.90
11597;DHT22;5854;48.072;16.286;2022-09-04T07:05:41;20.50;63.60
11597;DHT22;5854;48.072;16.286;2022-09-04T07:08:29;21.70;59.10
11597;DHT22;5854;48.072;16.286;2022-09-04T07:11:17;22.70;55.00
11597;DHT22;5854;48.072;16.286;2022-09-04T07:14:11;23.50;56.20
11597;DHT22;5854;48.072;16.286;2022-09-04T07:16:58;24.30;51.80
11597;DHT22;5854;48.072;16.286;2022-09-04T07:19:52;24.90;48.20
11597;DHT22;5854;48.072;16.286;2022-09-04T07:25:19;24.70;47.60
11597;DHT22;5854;48.072;16.286;2022-09-04T07:28:08;24.60;45.10
11597;DHT22;5854;48.072;16.286;2022-09-04T07:30:43;24.50;46.40
11597;DHT22;5854;48.072;16.286;2022-09-04T07:33:20;25.20;49.40
11597;DHT22;5854;48.072;16.286;2022-09-04T07:35:57;25.60;48.00
11597;DHT22;5854;48.072;16.286;2022-09-04T07:38:36;25.30;46.70
11597;DHT22;5854;48.072;16.286;2022-09-04T07:41:12;25.00;48.30
11597;DHT22;5854;48.072;16.286;2022-09-04T07:43:45;24.00;47.40
11597;DHT22;5854;48.072;16.286;2022-09-04T07:46:20;25.10;49.50
11597;DHT22;5854;48.072;16.286;2022-09-04T07:48:59;25.10;48.00
11597;DHT22;5854;48.072;16.286;2022-09-04T07:51:39;24.70;46.20
11597;DHT22;5854;48.072;16.286;2022-09-04T07:54:36;24.60;48.20
11597;DHT22;5854;48.072;16.286;2022-09-04T07:57:34;25.80;44.70
11597;DHT22;5854;48.072;16.286;2022-09-04T08:00:12;26.20;48.40
11597;DHT22;5854;48.072;16.286;2022-09-04T08:03:12;26.50;47.60
11597;DHT22;5854;48.072;16.286;2022-09-04T08:05:48;25.60;48.30
11597;DHT22;5854;48.072;16.286;2022-09-04T08:11:48;22.90;55.60
11597;DHT22;5854;48.072;16.286;2022-09-04T08:14:36;22.50;57.30
11597;DHT22;5854;48.072;16.286;2022-09-04T08:20:43;22.40;57.60
11597;DHT22;5854;48.072;16.286;2022-09-04T08:23:22;22.00;57.50
11597;DHT22;5854;48.072;16.286;2022-09-04T08:26:03;22.10;57.40
11597;DHT22;5854;48.072;16.286;2022-09-04T08:28:49;21.90;57.50
11597;DHT22;5854;48.072;16.286;2022-09-04T08:31:29;21.90;59.80
11597;DHT22;5854;48.072;16.286;2022-09-04T08:34:06;22.20;58.50
11597;DHT22;5854;48.072;16.286;2022-09-04T08:37:01;22.20;59.20
11597;DHT22;5854;48.072;16.286;2022-09-04T08:39:39;22.40;59.00
11597;DHT22;5854;48.072;16.286;2022-09-04T08:42:42;22.20;57.70
11597;DHT22;5854;48.072;16.286;2022-09-04T08:45:41;21.90;58.70
11597;DHT22;5854;48.072;16.286;2022-09-04T08:48:58;21.90;58.30
11597;DHT22;5854;48.072;16.286;2022-09-04T08:52:13;21.90;59.50
11597;DHT22;5854;48.072;16.286;2022-09-04T08:55:16;21.90;61.30
11597;DHT22;5854;48.072;16.286;2022-09-04T08:58:38;22.20;59.90
11597;DHT22;5854;48.072;16.286;2022-09-04T09:05:18;22.50;57.10
11597;DHT22;5854;48.072;16.286;2022-09-04T09:12:28;22.60;58.00
11597;DHT22;5854;48.072;16.286;2022-09-04T09:15:47;22.60;57.50
11597;DHT22;5854;48.072;16.286;2022-09-04T09:18:34;22.50;59.10
11597;DHT22;5854;48.072;16.286;2022-09-04T09:21:08;22.40;58.60
11597;DHT22;5854;48.072;16.286;2022-09-04T09:23:42;22.50;57.80
11597;DHT22;5854;48.072;16.286;2022-09-04T09:26:23;22.50;58.20
11597;DHT22;5854;48.072;16.286;2022-09-04T09:29:26;22.40;57.70
11597;DHT22;5854;48.072;16.286;2022-09-04T09:35:59;22.60;56.90
11597;DHT22;5854;48.072;16.286;2022-09-04T09:39:07;22.70;56.40
11597;DHT22;5854;48.072;16.286;2022-09-04T09:42:33;22.80;55.70
11597;DHT22;5854;48.072;16.286;2022-09-04T09:45:48;22.50;56.90
11597;DHT22;5854;48.072;16.286;2022-09-04T09:48:46;22.70;57.60
11597;DHT22;5854;48.072;16.286;2022-09-04T09:52:08;22.80;57.00
11597;DHT22;5854;48.072;16.286;2022-09-04T09:55:07;22.70;56.90
11597;DHT22;5854;48.072;16.286;2022-09-04T09:58:08;22.70;58.80
11597;DHT22;5854;48.072;16.286;2022-09-04T10:00:55;22.80;57.30
11597;DHT22;5854;48.072;16.286;2022-09-04T10:10:22;22.70;57.80
11597;DHT22;5854;48.072;16.286;2022-09-04T10:26:24;23.10;55.90
11597;DHT22;5854;48.072;16.286;2022-09-04T10:29:47;23.00;56.80
11597;DHT22;5854;48.072;16.286;2022-09-04T10:32:37;23.00;56.00
11597;DHT22;5854;48.072;16.286;2022-09-04T10:35:40;22.90;55.90
11597;DHT22;5854;48.072;16.286;2022-09-04T10:38:35;22.80;56.70
11597;DHT22;5854;48.072;16.286;2022-09-04T10:41:52;22.80;56.60
11597;DHT22;5854;48.072;16.286;2022-09-04T10:45:01;22.90;56.60
11597;DHT22;5854;48.072;16.286;2022-09-04T10:47:54;22.70;56.60
11597;DHT22;5854;48.072;16.286;2022-09-04T10:50:59;22.70;56.10
11597;DHT22;5854;48.072;16.286;2022-09-04T10:57:15;22.40;57.00
11597;DHT22;5854;48.072;16.286;2022-09-04T11:00:06;22.40;58.30
11597;DHT22;5854;48.072;16.286;2022-09-04T11:02:57;22.60;57.90
11597;DHT22;5854;48.072;16.286;2022-09-04T11:06:28;22.50;57.60
11597;DHT22;5854;48.072;16.286;2022-09-04T11:09:29;22.50;58.30
11597;DHT22;5854;48.072;16.286;2022-09-04T11:15:56;22.60;57.60
11597;DHT22;5854;48.072;16.286;2022-09-04T11:28:29;23.00;56.70
11597;DHT22;5854;48.072;16.286;2022-09-04T11:31:23;23.10;56.00
11597;DHT22;5854;48.072;16.286;2022-09-04T11:38:04;22.90;56.80
11597;DHT22;5854;48.072;16.286;2022-09-04T11:41:18;23.10;56.30
11597;DHT22;5854;48.072;16.286;2022-09-04T11:44:45;23.10;55.40
11597;DHT22;5854;48.072;16.286;2022-09-04T11:47:49;23.40;54.60
11597;DHT22;5854;48.072;16.286;2022-09-04T11:50:50;23.50;53.80
11597;DHT22;5854;48.072;16.286;2022-09-04T11:54:00;23.70;54.00
11597;DHT22;5854;48.072;16.286;2022-09-04T11:56:56;23.90;53.20
11597;DHT22;5854;48.072;16.286;2022-09-04T12:16:00;24.00;51.90
11597;DHT22;5854;48.072;16.286;2022-09-04T12:19:22;23.90;52.20
11597;DHT22;5854;48.072;16.286;2022-09-04T12:22:53;24.00;52.10
11597;DHT22;5854;48.072;16.286;2022-09-04T12:26:01;23.90;51.90
11597;DHT22;5854;48.072;16.286;2022-09-04T12:29:07;23.90;52.10
11597;DHT22;5854;48.072;16.286;2022-09-04T12:32:00;23.90;52.70
11597;DHT22;5854;48.072;16.286;2022-09-04T12:34:59;24.00;52.40
11597;DHT22;5854;48.072;16.286;2022-09-04T12:41:29;24.10;51.80
11597;DHT22;5854;48.072;16.286;2022-09-04T12:44:10;24.00;52.50
11597;DHT22;5854;48.072;16.286;2022-09-04T12:46:59;24.10;51.70
11597;DHT22;5854;48.072;16.286;2022-09-04T12:49:47;24.10;52.00
11597;DHT22;5854;48.072;16.286;2022-09-04T12:52:39;24.20;51.70
11597;DHT22;5854;48.072;16.286;2022-09-04T12:55:18;24.20;51.40
11597;DHT22;5854;48.072;16.286;2022-09-04T12:57:59;24.20;51.40
11597;DHT22;5854;48.072;16.286;2022-09-04T13:00:41;24.10;51.70
11597;DHT22;5854;48.072;16.286;2022-09-04T13:03:22;24.10;50.80
11597;DHT22;5854;48.072;16.286;2022-09-04T13:06:04;24.10;51.00
11597;DHT22;5854;48.072;16.286;2022-09-04T13:08:45;24.20;51.20
11597;DHT22;5854;48.072;16.286;2022-09-04T13:11:23;24.30;51.70
11597;DHT22;5854;48.072;16.286;2022-09-04T13:14:21;24.20;51.10
11597;DHT22;5854;48.072;16.286;2022-09-04T13:16:59;24.40;51.70
11597;DHT22;5854;48.072;16.286;2022-09-04T13:19:38;24.40;50.80
11597;DHT22;5854;48.072;16.286;2022-09-04T13:22:19;24.40;51.10
11597;DHT22;5854;48.072;16.286;2022-09-04T13:24:59;24.50;50.40
11597;DHT22;5854;48.072;16.286;2022-09-04T13:27:44;24.40;51.40
11597;DHT22;5854;48.072;16.286;2022-09-04T13:30:19;24.30;50.70
11597;DHT22;5854;48.072;16.286;2022-09-04T13:33:18;24.10;51.10
11597;DHT22;5854;48.072;16.286;2022-09-04T13:36:05;23.90;52.10
11597;DHT22;5854;48.072;16.286;2022-09-04T13:39:15;23.90;52.10
11597;DHT22;5854;48.072;16.286;2022-09-04T13:42:09;23.90;52.10
11597;DHT22;5854;48.072;16.286;2022-09-04T13:45:02;23.70;53.40
11597;DHT22;5854;48.072;16.286;2022-09-04T13:47:43;23.60;54.40
11597;DHT22;5854;48.072;16.286;2022-09-04T13:50:18;23.40;54.50
11597;DHT22;5854;48.072;16.286;2022-09-04T13:52:53;23.20;54.70
11597;DHT22;5854;48.072;16.286;2022-09-04T13:55:24;23.10;55.20
11597;DHT22;5854;48.072;16.286;2022-09-04T13:57:59;23.20;55.00
11597;DHT22;5854;48.072;16.286;2022-09-04T14:00:36;23.30;55.10
11597;DHT22;5854;48.072;16.286;2022-09-04T14:03:13;23.60;54.80
11597;DHT22;5854;48.072;16.286;2022-09-04T14:05:49;23.50;54.80
11597;DHT22;5854;48.072;16.286;2022-09-04T14:08:22;23.70;55.30
11597;DHT22;5854;48.072;16.286;2022-09-04T14:11:23;23.90;54.10
11597;DHT22;5854;48.072;16.286;2022-09-04T14:14:17;23.90;54.70
11597;DHT22;5854;48.072;16.286;2022-09-04T14:17:08;24.50;52.80
11597;DHT22;5854;48.072;16.286;2022-09-04T14:19:53;24.00;53.50
11597;DHT22;5854;48.072;16.286;2022-09-04T14:22:47;23.90;53.40
11597;DHT22;5854;48.072;16.286;2022-09-04T14:25:30;23.70;53.50
11597;DHT22;5854;48.072;16.286;2022-09-04T14:28:10;23.60;53.70
11597;DHT22;5854;48.072;16.286;2022-09-04T14:30:49;23.70;55.00
11597;DHT22;5854;48.072;16.286;2022-09-04T14:33:29;23.60;54.40
11597;DHT22;5854;48.072;16.286;2022-09-04T14:36:13;23.50;54.40
11597;DHT22;5854;48.072;16.286;2022-09-04T14:38:59;23.40;54.50
11597;DHT22;5854;48.072;16.286;2022-09-04T14:41:44;23.20;55.50
11597;DHT22;5854;48.072;16.286;2022-09-04T14:44:32;22.90;55.70
11597;DHT22;5854;48.072;16.286;2022-09-04T14:47:15;22.90;56.00
11597;DHT22;5854;48.072;16.286;2022-09-04T14:49:54;22.80;56.60
11597;DHT22;5854;48.072;16.286;2022-09-04T14:52:28;22.80;56.10
11597;DHT22;5854;48.072;16.286;2022-09-04T14:54:58;22.70;56.50
11597;DHT22;5854;48.072;16.286;2022-09-04T14:57:31;22.70;56.90
11597;DHT22;5854;48.072;16.286;2022-09-04T15:00:09;22.80;57.20
11597;DHT22;5854;48.072;16.286;2022-09-04T15:02:42;22.90;57.00
11597;DHT22;5854;48.072;16.286;2022-09-04T15:05:19;22.90;56.30
11597;DHT22;5854;48.072;16.286;2022-09-04T15:07:54;23.10;56.10
11597;DHT22;5854;48.072;16.286;2022-09-04T15:10:29;23.20;55.90
11597;DHT22;5854;48.072;16.286;2022-09-04T15:16:28;23.00;55.90
11597;DHT22;5854;48.072;16.286;2022-09-04T15:19:22;23.00;55.90
11597;DHT22;5854;48.072;16.286;2022-09-04T15:22:03;23.00;56.50
11597;DHT22;5854;48.072;16.286;2022-09-04T15:24:34;22.70;57.30
11597;DHT22;5854;48.072;16.286;2022-09-04T15:27:07;22.60;57.60
11597;DHT22;5854;48.072;16.286;2022-09-04T15:29:53;22.80;57.30
11597;DHT22;5854;48.072;16.286;2022-09-04T15:32:32;23.10;56.20
11597;DHT22;5854;48.072;16.286;2022-09-04T15:35:13;23.30;56.60
11597;DHT22;5854;48.072;16.286;2022-09-04T15:37:44;23.30;55.20
11597;DHT22;5854;48.072;16.286;2022-09-04T15:40:20;23.40;55.20
11597;DHT22;5854;48.072;16.286;2022-09-04T15:43:01;23.40;55.70
11597;DHT22;5854;48.072;16.286;2022-09-04T15:45:43;23.30;56.00
11597;DHT22;5854;48.072;16.286;2022-09-04T15:48:33;23.30;55.50
11597;DHT22;5854;48.072;16.286;2022-09-04T15:51:15;23.30;55.70
11597;DHT22;5854;48.072;16.286;2022-09-04T15:53:52;23.20;55.40
11597;DHT22;5854;48.072;16.286;2022-09-04T15:56:35;23.10;55.80
11597;DHT22;5854;48.072;16.286;2022-09-04T15:59:11;23.30;55.10
11597;DHT22;5854;48.072;16.286;2022-09-04T16:01:48;23.50;54.80
11597;DHT22;5854;48.072;16.286;2022-09-04T16:04:22;23.50;54.60
11597;DHT22;5854;48.072;16.286;2022-09-04T16:07:12;23.20;55.10
11597;DHT22;5854;48.072;16.286;2022-09-04T16:10:02;23.10;55.20
11597;DHT22;5854;48.072;16.286;2022-09-04T16:12:39;23.30;55.20
11597;DHT22;5854;48.072;16.286;2022-09-04T16:15:19;23.30;55.30
11597;DHT22;5854;48.072;16.286;2022-09-04T16:17:54;23.30;54.60
11597;DHT22;5854;48.072;16.286;2022-09-04T16:20:28;23.50;54.70
11597;DHT22;5854;48.072;16.286;2022-09-04T16:23:01;23.30;55.10
11597;DHT22;5854;48.072;16.286;2022-09-04T16:25:34;23.20;55.20
11597;DHT22;5854;48.072;16.286;2022-09-04T16:28:04;23.10;56.20
11597;DHT22;5854;48.072;16.286;2022-09-04T16:30:38;23.10;55.40
11597;DHT22;5854;48.072;16.286;2022-09-04T16:33:19;22.90;55.90
11597;DHT22;5854;48.072;16.286;2022-09-04T16:35:48;22.90;56.60
11597;DHT22;5854;48.072;16.286;2022-09-04T16:38:20;22.80;55.80
11597;DHT22;5854;48.072;16.286;2022-09-04T16:40:53;23.00;55.60
11597;DHT22;5854;48.072;16.286;2022-09-04T16:43:26;22.90;55.80
11597;DHT22;5854;48.072;16.286;2022-09-04T16:46:04;23.00;55.40
11597;DHT22;5854;48.072;16.286;2022-09-04T16:48:44;23.10;56.00
11597;DHT22;5854;48.072;16.286;2022-09-04T16:51:21;23.10;55.90
11597;DHT22;5854;48.072;16.286;2022-09-04T16:53:56;23.00;55.90
11597;DHT22;5854;48.072;16.286;2022-09-04T16:56:35;23.00;56.10
11597;DHT22;5854;48.072;16.286;2022-09-04T16:59:19;23.00;56.10
11597;DHT22;5854;48.072;16.286;2022-09-04T17:01:56;23.10;55.90
11597;DHT22;5854;48.072;16.286;2022-09-04T17:04:34;23.10;55.60
11597;DHT22;5854;48.072;16.286;2022-09-04T17:07:13;22.90;56.00
11597;DHT22;5854;48.072;16.286;2022-09-04T17:09:49;23.00;56.10
11597;DHT22;5854;48.072;16.286;2022-09-04T17:12:42;22.90;56.10
11597;DHT22;5854;48.072;16.286;2022-09-04T17:15:20;22.90;56.30
11597;DHT22;5854;48.072;16.286;2022-09-04T17:17:51;23.00;56.60
11597;DHT22;5854;48.072;16.286;2022-09-04T17:20:24;23.00;56.20
11597;DHT22;5854;48.072;16.286;2022-09-04T17:23:04;23.00;55.90
11597;DHT22;5854;48.072;16.286;2022-09-04T17:25:38;23.10;57.00
11597;DHT22;5854;48.072;16.286;2022-09-04T17:28:29;23.10;56.00
11597;DHT22;5854;48.072;16.286;2022-09-04T17:31:05;23.10;56.10
11597;DHT22;5854;48.072;16.286;2022-09-04T17:33:42;23.10;56.10
11597;DHT22;5854;48.072;16.286;2022-09-04T17:36:16;23.10;57.10
11597;DHT22;5854;48.072;16.286;2022-09-04T17:38:49;23.00;57.30
11597;DHT22;5854;48.072;16.286;2022-09-04T17:41:26;22.90;57.90
11597;DHT22;5854;48.072;16.286;2022-09-04T17:44:16;22.90;57.00
11597;DHT22;5854;48.072;16.286;2022-09-04T17:47:07;22.90;56.90
11597;DHT22;5854;48.072;16.286;2022-09-04T17:49:47;23.00;56.30
11597;DHT22;5854;48.072;16.286;2022-09-04T17:52:26;23.00;55.90
11597;DHT22;5854;48.072;16.286;2022-09-04T17:55:02;23.00;56.50
11597;DHT22;5854;48.072;16.286;2022-09-04T17:57:47;23.00;56.40
11597;DHT22;5854;48.072;16.286;2022-09-04T18:00:21;23.00;56.20
11597;DHT22;5854;48.072;16.286;2022-09-04T18:02:53;23.00;56.10
11597;DHT22;5854;48.072;16.286;2022-09-04T18:05:27;23.00;56.10
11597;DHT22;5854;48.072;16.286;2022-09-04T18:08:04;23.00;56.10
11597;DHT22;5854;48.072;16.286;2022-09-04T18:10:48;22.90;57.10
11597;DHT22;5854;48.072;16.286;2022-09-04T18:13:23;22.70;58.90
11597;DHT22;5854;48.072;16.286;2022-09-04T18:15:56;22.60;58.70
11597;DHT22;5854;48.072;16.286;2022-09-04T18:18:37;22.70;57.40
11597;DHT22;5854;48.072;16.286;2022-09-04T18:21:14;22.70;57.50
11597;DHT22;5854;48.072;16.286;2022-09-04T18:23:49;22.70;57.10
11597;DHT22;5854;48.072;16.286;2022-09-04T18:26:25;22.80;56.60
11597;DHT22;5854;48.072;16.286;2022-09-04T18:29:01;22.60;57.90
11597;DHT22;5854;48.072;16.286;2022-09-04T18:31:34;22.50;57.90
11597;DHT22;5854;48.072;16.286;2022-09-04T18:34:18;22.60;57.30
11597;DHT22;5854;48.072;16.286;2022-09-04T18:36:56;22.50;58.00
11597;DHT22;5854;48.072;16.286;2022-09-04T18:39:35;22.40;58.00
11597;DHT22;5854;48.072;16.286;2022-09-04T18:42:18;22.50;58.20
11597;DHT22;5854;48.072;16.286;2022-09-04T18:44:52;22.30;58.60
11597;DHT22;5854;48.072;16.286;2022-09-04T18:47:23;22.30;58.40
11597;DHT22;5854;48.072;16.286;2022-09-04T18:50:01;22.30;58.30
11597;DHT22;5854;48.072;16.286;2022-09-04T18:52:41;22.10;59.40